Time;durP1;ratioP1;P1;durP2;ratioP2;P2;SDS_P1;SDS_P2;PMS_P1;PMS_P2;Temp;Humidity;BMP_temperature;BMP_pressure;BME280_temperature;BME280_humidity;BME280_pressure;Samples;Min_cycle;Max_cycle;Signal;HPM_P1;HPM_P2
2020/12/10 00:02:12;;;;;;;;;;;;;;;0.91;100.00;95563.19;5071507;28;19924;-57
2020/12/10 00:04:39;;;;;;;;;;;;;;;0.93;100.00;95563.94;5045908;28;19925;-50
2020/12/10 00:07:06;;;;;;;;;;;;;;;0.92;100.00;95573.47;5084056;28;19924;-49
2020/12/10 00:09:33;;;;;;;;;;;;;;;0.99;100.00;95567.84;5042431;28;20340;-53
2020/12/10 00:12:00;;;;;;;;;;;;;;;1.00;100.00;95566.91;5077340;28;19924;-54
2020/12/10 00:14:28;;;;;;;;;;;;;;;0.99;100.00;95558.28;5044651;28;19924;-55
2020/12/10 00:16:55;;;;;;;;;;;;;;;0.92;100.00;95557.06;5079457;28;19963;-51
2020/12/10 00:19:22;;;;;;;;;;;;;;;0.87;100.00;95561.75;5051814;28;19929;-50
2020/12/10 00:21:48;;;;;;;;;;;;;;;0.83;100.00;95561.16;5082112;28;19997;-51
2020/12/10 00:24:15;;;;;;;;;;;;;;;0.78;100.00;95557.22;5040533;28;19928;-51
2020/12/10 00:26:42;;;;;;;;;;;;;;;0.81;100.00;95560.41;5081984;28;20036;-50
2020/12/10 00:29:09;;;;;;;;;;;;;;;0.76;100.00;95559.06;5039971;28;20031;-48
2020/12/10 00:31:37;;;;;;;;;;;;;;;0.76;100.00;95562.53;5073601;28;19955;-50
2020/12/10 00:34:04;;;;;;;;;;;;;;;0.78;100.00;95554.63;5041091;28;20386;-50
2020/12/10 00:36:31;;;;;;;;;;;;;;;0.77;100.00;95556.38;5082974;28;20020;-54
2020/12/10 00:38:58;;;;;;;;;;;;;;;0.77;100.00;95556.38;5045778;28;19936;-48
2020/12/10 00:41:25;;;;;;;;;;;;;;;0.76;100.00;95553.88;5075036;28;19931;-49
2020/12/10 00:43:52;;;;;;;;;;;;;;;0.73;100.00;95556.72;5048302;28;20342;-54
2020/12/10 00:46:19;;;;;;;;;;;;;;;0.77;100.00;95545.19;5079032;28;20283;-49
2020/12/10 00:48:46;;;;;;;;;;;;;;;0.71;100.00;95549.84;5082559;28;19924;-49
2020/12/10 00:51:14;;;;;;;;;;;;;;;0.68;100.00;95550.06;5044253;28;19927;-50
2020/12/10 00:53:42;;;;;;;;;;;;;;;0.68;100.00;95534.50;5065103;28;19935;-49
2020/12/10 00:56:09;;;;;;;;;;;;;;;0.64;100.00;95535.66;5035669;28;19928;-49
2020/12/10 00:58:35;;;;;;;;;;;;;;;0.64;100.00;95520.09;5076186;28;19982;-48
2020/12/10 01:01:02;;;;;;;;;;;;;;;0.66;100.00;95523.41;5045547;28;19931;-50
2020/12/10 01:03:29;;;;;;;;;;;;;;;0.63;100.00;95518.44;5081919;28;20034;-51
2020/12/10 01:05:58;;;;;;;;;;;;;;;0.65;100.00;95520.91;5053650;28;20440;-52
2020/12/10 01:08:24;;;;;;;;;;;;;;;0.68;100.00;95523.28;5078312;28;20213;-50
2020/12/10 01:10:51;;;;;;;;;;;;;;;0.68;100.00;95521.53;5037969;28;20005;-55
2020/12/10 01:13:18;;;;;;;;;;;;;;;0.67;100.00;95530.25;5081741;28;19931;-49
2020/12/10 01:15:45;;;;;;;;;;;;;;;0.68;100.00;95525.88;5044791;28;19950;-50
2020/12/10 01:18:12;;;;;;;;;;;;;;;0.70;100.00;95527.44;5081244;28;19932;-53
2020/12/10 01:20:38;;;;;;;;;;;;;;;0.71;100.00;95530.88;5047243;28;19997;-51
2020/12/10 01:23:06;;;;;;;;;;;;;;;0.71;100.00;95530.88;5086864;28;19978;-50
2020/12/10 01:25:33;;;;;;;;;;;;;;;0.73;100.00;95529.00;5049932;28;19924;-49
2020/12/10 01:27:59;;;;;;;;;;;;;;;0.72;100.00;95524.72;5073227;28;20030;-48
2020/12/10 01:30:26;;;;;;;;;;;;;;;0.77;100.00;95529.63;5082234;28;20499;-49
2020/12/10 01:32:53;;;;;;;;;;;;;;;0.75;100.00;95521.09;5039125;28;19939;-52
2020/12/10 01:35:20;;;;;;;;;;;;;;;0.70;100.00;95516.25;5084044;28;19976;-49
2020/12/10 01:37:47;;;;;;;;;;;;;;;0.76;100.00;95517.56;5044431;28;19932;-54
2020/12/10 01:40:15;;;;;;;;;;;;;;;0.77;100.00;95519.22;5081026;28;19925;-49
2020/12/10 01:42:41;;;;;;;;;;;;;;;0.79;100.00;95519.94;5052042;28;19924;-48
2020/12/10 01:45:08;;;;;;;;;;;;;;;0.82;100.00;95517.13;5082885;28;19947;-47
2020/12/10 01:47:35;;;;;;;;;;;;;;;0.81;100.00;95515.47;5043346;28;19935;-52
2020/12/10 01:50:02;;;;;;;;;;;;;;;0.76;100.00;95510.63;5079988;28;19935;-49
2020/12/10 01:52:29;;;;;;;;;;;;;;;0.81;100.00;95510.28;5046874;28;19977;-49
2020/12/10 01:54:56;;;;;;;;;;;;;;;0.78;100.00;95511.31;5079933;28;20398;-55
2020/12/10 01:57:24;;;;;;;;;;;;;;;0.77;100.00;95514.03;5045519;28;19924;-50
2020/12/10 01:59:50;;;;;;;;;;;;;;;0.81;100.00;95507.69;5083434;28;20023;-51
2020/12/10 02:02:17;;;;;;;;;;;;;;;0.79;100.00;95502.63;5049545;28;19975;-53
2020/12/10 02:04:44;;;;;;;;;;;;;;;0.81;100.00;95499.91;5080825;28;20299;-55
2020/12/10 02:07:11;;;;;;;;;;;;;;;0.80;100.00;95493.91;5042025;28;19974;-50
2020/12/10 02:09:38;;;;;;;;;;;;;;;0.82;100.00;95497.19;5075761;28;19976;-49
2020/12/10 02:12:05;;;;;;;;;;;;;;;0.81;100.00;95498.13;5082208;28;20027;-51
2020/12/10 02:14:32;;;;;;;;;;;;;;;0.80;100.00;95491.31;5048749;28;19928;-54
2020/12/10 02:16:59;;;;;;;;;;;;;;;0.79;100.00;95491.41;5086443;28;20016;-51
2020/12/10 02:19:26;;;;;;;;;;;;;;;0.80;100.00;95483.53;5053119;28;19935;-55
2020/12/10 02:21:53;;;;;;;;;;;;;;;0.80;100.00;95472.31;5081188;28;19932;-52
2020/12/10 02:24:20;;;;;;;;;;;;;;;0.83;100.00;95480.72;5044966;28;19967;-51
2020/12/10 02:26:47;;;;;;;;;;;;;;;0.85;100.00;95478.81;5082572;28;19956;-51
2020/12/10 02:29:16;;;;;;;;;;;;;;;0.82;100.00;95465.22;5051812;28;19924;-49
2020/12/10 02:31:44;;;;;;;;;;;;;;;0.80;100.00;95451.56;5087493;28;19928;-51
2020/12/10 02:34:11;;;;;;;;;;;;;;;0.80;100.00;95456.75;5048144;28;19924;-49
2020/12/10 02:36:38;;;;;;;;;;;;;;;0.80;100.00;95456.75;5081907;28;20468;-49
2020/12/10 02:39:05;;;;;;;;;;;;;;;0.82;100.00;95455.66;5048468;28;19955;-53
2020/12/10 02:41:33;;;;;;;;;;;;;;;0.80;100.00;95454.97;5067362;28;19975;-50
2020/12/10 02:43:59;;;;;;;;;;;;;;;0.81;100.00;95456.63;5054534;28;19924;-47
2020/12/10 02:46:26;;;;;;;;;;;;;;;0.83;100.00;95456.53;5078235;28;20005;-47
2020/12/10 02:48:53;;;;;;;;;;;;;;;0.82;100.00;95447.06;5050530;28;19977;-53
2020/12/10 02:51:19;;;;;;;;;;;;;;;0.85;100.00;95439.88;5083681;28;19924;-48
2020/12/10 02:53:47;;;;;;;;;;;;;;;0.91;100.00;95442.03;5082239;28;19924;-50
2020/12/10 02:56:14;;;;;;;;;;;;;;;0.91;100.00;95438.63;5058613;28;19924;-50
2020/12/10 02:58:42;;;;;;;;;;;;;;;0.92;100.00;95442.88;5083302;28;19950;-57
2020/12/10 03:01:09;;;;;;;;;;;;;;;0.91;100.00;95443.81;5048568;28;19932;-49
2020/12/10 03:03:36;;;;;;;;;;;;;;;0.89;100.00;95435.31;5080618;28;20449;-49
2020/12/10 03:06:03;;;;;;;;;;;;;;;0.84;100.00;95424.44;5043366;28;20406;-49
2020/12/10 03:08:30;;;;;;;;;;;;;;;0.88;100.00;95423.28;5064805;28;19937;-51
2020/12/10 03:10:57;;;;;;;;;;;;;;;0.88;100.00;95424.09;5049149;28;19924;-49
2020/12/10 03:13:24;;;;;;;;;;;;;;;0.88;100.00;95420.69;5068998;28;19928;-54
2020/12/10 03:15:52;;;;;;;;;;;;;;;0.90;100.00;95424.00;5045086;28;19924;-49
2020/12/10 03:18:19;;;;;;;;;;;;;;;0.89;100.00;95423.16;5082169;28;20014;-51
2020/12/10 03:20:46;;;;;;;;;;;;;;;0.89;100.00;95420.56;5043264;28;19955;-49
2020/12/10 03:23:13;;;;;;;;;;;;;;;0.97;100.00;95411.41;5085517;28;20023;-52
2020/12/10 03:25:39;;;;;;;;;;;;;;;0.92;100.00;95422.09;5056830;28;19983;-51
2020/12/10 03:28:06;;;;;;;;;;;;;;;0.92;100.00;95417.75;5084786;28;20022;-52
2020/12/10 03:30:33;;;;;;;;;;;;;;;0.86;100.00;95404.38;5044300;28;20348;-53
2020/12/10 03:33:01;;;;;;;;;;;;;;;0.86;100.00;95402.63;5085805;28;19995;-51
2020/12/10 03:35:28;;;;;;;;;;;;;;;0.87;100.00;95406.06;5072708;28;19931;-55
2020/12/10 03:37:55;;;;;;;;;;;;;;;0.84;100.00;95401.91;5062618;28;19935;-52
2020/12/10 03:40:22;;;;;;;;;;;;;;;0.81;100.00;95383.97;5085156;28;19978;-49
2020/12/10 03:42:49;;;;;;;;;;;;;;;0.84;100.00;95391.53;5043598;28;19924;-49
2020/12/10 03:45:16;;;;;;;;;;;;;;;0.85;100.00;95387.16;5083330;28;19932;-54
2020/12/10 03:47:43;;;;;;;;;;;;;;;0.84;100.00;95377.72;5049235;28;20286;-50
2020/12/10 03:50:11;;;;;;;;;;;;;;;0.83;100.00;95379.50;5086670;28;19970;-50
2020/12/10 03:52:37;;;;;;;;;;;;;;;0.85;100.00;95379.38;5052363;28;20340;-49
2020/12/10 03:55:04;;;;;;;;;;;;;;;0.81;100.00;95375.34;5079275;28;19951;-49
2020/12/10 03:57:31;;;;;;;;;;;;;;;0.75;100.00;95374.03;5044525;28;19931;-51
2020/12/10 03:59:58;;;;;;;;;;;;;;;0.79;100.00;95372.88;5077048;28;19924;-49
2020/12/10 04:02:24;;;;;;;;;;;;;;;0.77;100.00;95369.56;5048655;28;19970;-49
2020/12/10 04:04:51;;;;;;;;;;;;;;;0.79;100.00;95375.47;5085071;28;19924;-48
2020/12/10 04:07:18;;;;;;;;;;;;;;;0.82;100.00;95372.63;5050994;28;19963;-50
2020/12/10 04:09:45;;;;;;;;;;;;;;;0.82;100.00;95377.00;5084205;28;19970;-52
2020/12/10 04:12:12;;;;;;;;;;;;;;;0.81;100.00;95375.34;5043352;28;20777;-49
2020/12/10 04:14:39;;;;;;;;;;;;;;;0.82;100.00;95371.81;5076469;28;19935;-49
2020/12/10 04:17:06;;;;;;;;;;;;;;;0.86;100.00;95378.44;5051395;28;20401;-50
2020/12/10 04:19:33;;;;;;;;;;;;;;;0.85;100.00;95369.81;5075628;28;20002;-52
2020/12/10 04:22:00;;;;;;;;;;;;;;;0.83;100.00;95366.53;5081612;28;19952;-54
2020/12/10 04:24:27;;;;;;;;;;;;;;;0.83;100.00;95365.72;5045853;28;20394;-55
2020/12/10 04:26:54;;;;;;;;;;;;;;;0.79;100.00;95367.69;5078936;28;19975;-46
2020/12/10 04:29:21;;;;;;;;;;;;;;;0.84;100.00;95365.59;5047534;28;19938;-51
2020/12/10 04:31:48;;;;;;;;;;;;;;;0.83;100.00;95365.72;5074637;28;20010;-51
2020/12/10 04:34:15;;;;;;;;;;;;;;;0.86;100.00;95375.84;5043805;28;20412;-55
2020/12/10 04:36:41;;;;;;;;;;;;;;;0.91;100.00;95371.97;5083192;28;19994;-49
2020/12/10 04:39:08;;;;;;;;;;;;;;;1.00;100.00;95372.22;5040033;28;19924;-50
2020/12/10 04:41:37;;;;;;;;;;;;;;;1.00;100.00;95374.81;5080652;28;20215;-50
2020/12/10 04:44:03;;;;;;;;;;;;;;;1.05;100.00;95376.16;5051490;28;19939;-49
2020/12/10 04:46:30;;;;;;;;;;;;;;;1.08;100.00;95375.94;5083690;28;19977;-49
2020/12/10 04:48:57;;;;;;;;;;;;;;;1.11;100.00;95373.09;5041422;28;19924;-50
2020/12/10 04:51:24;;;;;;;;;;;;;;;1.11;100.00;95378.31;5080305;28;20397;-51
2020/12/10 04:53:51;;;;;;;;;;;;;;;1.16;100.00;95378.78;5045245;28;22799;-52
2020/12/10 04:56:18;;;;;;;;;;;;;;;1.21;100.00;95378.44;5080762;28;19977;-53
2020/12/10 04:58:46;;;;;;;;;;;;;;;1.23;100.00;95373.94;5057885;28;20007;-50
2020/12/10 05:01:15;;;;;;;;;;;;;;;1.23;100.00;95373.94;5078940;28;19978;-49
2020/12/10 05:03:44;;;;;;;;;;;;;;;1.25;100.00;95371.25;5079760;28;20205;-46
2020/12/10 05:06:11;;;;;;;;;;;;;;;1.23;100.00;95370.53;5042899;28;20020;-51
2020/12/10 05:08:38;;;;;;;;;;;;;;;1.27;100.00;95364.97;5082898;28;19932;-49
2020/12/10 05:11:06;;;;;;;;;;;;;;;1.26;100.00;95363.34;5042107;28;19924;-47
2020/12/10 05:13:33;;;;;;;;;;;;;;;1.30;100.00;95361.34;5080477;28;19940;-47
2020/12/10 05:16:01;;;;;;;;;;;;;;;1.31;100.00;95363.00;5044448;28;20387;-47
2020/12/10 05:18:28;;;;;;;;;;;;;;;1.28;100.00;95365.84;5077942;28;20302;-47
2020/12/10 05:20:55;;;;;;;;;;;;;;;1.25;100.00;95371.25;5044053;28;19977;-49
2020/12/10 05:23:28;;;;;;;;;;;;;;;1.22;100.00;95368.88;5082042;28;21893;-51
2020/12/10 05:25:55;;;;;;;;;;;;;;;1.23;100.00;95367.94;5041817;28;19935;-49
2020/12/10 05:28:23;;;;;;;;;;;;;;;1.18;100.00;95374.31;5081242;28;19924;-48
2020/12/10 05:31:03;;;;;;;;;;;;;;;1.17;100.00;95369.22;5047604;28;20341;-49
2020/12/10 05:33:31;;;;;;;;;;;;;;;1.17;100.00;95372.66;5079881;28;19924;-47
2020/12/10 05:36:04;;;;;;;;;;;;;;;1.18;100.00;95373.47;5048832;28;19931;-49
2020/12/10 05:38:31;;;;;;;;;;;;;;;1.20;100.00;95371.59;5073834;28;20342;-48
2020/12/10 05:41:13;;;;;;;;;;;;;;;1.13;100.00;95366.00;5042465;28;20357;-50
2020/12/10 05:43:39;;;;;;;;;;;;;;;1.16;100.00;95364.97;5080186;28;19924;-48
2020/12/10 05:46:10;;;;;;;;;;;;;;;1.13;100.00;95366.00;5040347;28;20018;-48
2020/12/10 05:48:37;;;;;;;;;;;;;;;1.18;100.00;95365.69;5082204;28;19955;-53
2020/12/10 05:51:03;;;;;;;;;;;;;;;1.21;100.00;95356.84;5042003;28;19940;-50
2020/12/10 05:53:30;;;;;;;;;;;;;;;1.31;100.00;95355.22;5079822;28;19924;-48
2020/12/10 05:55:57;;;;;;;;;;;;;;;1.36;100.00;95351.31;5074417;28;20331;-56
2020/12/10 05:58:24;;;;;;;;;;;;;;;1.39;100.00;95348.50;5069143;28;19927;-50
2020/12/10 06:00:50;;;;;;;;;;;;;;;1.31;100.00;95350.84;5083095;28;19931;-49
2020/12/10 06:03:18;;;;;;;;;;;;;;;1.20;100.00;95348.22;5043099;28;20011;-49
2020/12/10 06:05:45;;;;;;;;;;;;;;;1.15;100.00;95356.34;5081980;28;20022;-49
2020/12/10 06:08:11;;;;;;;;;;;;;;;1.14;100.00;95356.47;5032543;28;19958;-52
2020/12/10 06:10:38;;;;;;;;;;;;;;;1.23;100.00;95352.34;5085027;28;20032;-48
2020/12/10 06:13:05;;;;;;;;;;;;;;;1.23;100.00;95353.19;5050110;28;20442;-47
2020/12/10 06:15:33;;;;;;;;;;;;;;;1.23;100.00;95360.16;5080982;28;19929;-47
2020/12/10 06:18:00;;;;;;;;;;;;;;;1.17;100.00;95364.88;5047202;28;19967;-47
2020/12/10 06:20:34;;;;;;;;;;;;;;;1.16;100.00;95365.78;5082006;28;19928;-50
2020/12/10 06:23:20;;;;;;;;;;;;;;;1.18;100.00;95358.72;5046796;28;19979;-55
2020/12/10 06:25:46;;;;;;;;;;;;;;;1.21;100.00;95365.47;5086725;28;19978;-47
2020/12/10 06:28:15;;;;;;;;;;;;;;;1.18;100.00;95360.50;5047032;28;19924;-49
2020/12/10 06:30:42;;;;;;;;;;;;;;;1.15;100.00;95363.31;5080599;28;19928;-51
2020/12/10 06:33:09;;;;;;;;;;;;;;;1.17;100.00;95369.22;5053610;28;20022;-51
2020/12/10 06:35:36;;;;;;;;;;;;;;;1.18;100.00;95361.31;5082247;28;19924;-47
2020/12/10 06:38:03;;;;;;;;;;;;;;;1.24;100.00;95364.38;5068837;28;20015;-49
2020/12/10 06:40:31;;;;;;;;;;;;;;;1.26;100.00;95365.13;5087555;28;19931;-54
2020/12/10 06:42:58;;;;;;;;;;;;;;;1.27;100.00;95362.38;5045617;28;20397;-48
2020/12/10 06:45:25;;;;;;;;;;;;;;;1.21;100.00;95356.84;5080085;28;19924;-50
2020/12/10 06:47:52;;;;;;;;;;;;;;;1.25;100.00;95360.88;5087251;28;19928;-49
2020/12/10 06:50:23;;;;;;;;;;;;;;;1.18;100.00;95361.31;5052355;28;19927;-49
2020/12/10 06:53:09;;;;;;;;;;;;;;;1.22;100.00;95361.09;5082716;28;19925;-51
2020/12/10 06:55:51;;;;;;;;;;;;;;;1.16;100.00;95367.56;5075391;28;19925;-48
2020/12/10 06:58:18;;;;;;;;;;;;;;;1.17;100.00;95364.88;5078854;28;19975;-58
2020/12/10 07:00:47;;;;;;;;;;;;;;;1.21;100.00;95362.03;5065337;28;19928;-52
2020/12/10 07:03:18;;;;;;;;;;;;;;;1.25;100.00;95366.06;5083481;28;20279;-49
2020/12/10 07:08:05;;;;;;;;;;;;;;;1.34;100.00;95363.63;5069134;27;19920;-49
2020/12/10 07:10:39;;;;;;;;;;;;;;;1.36;100.00;95366.91;5008610;28;19995;-50
2020/12/10 07:13:06;;;;;;;;;;;;;;;1.37;100.00;95359.94;5066151;28;20021;-51
2020/12/10 07:15:33;;;;;;;;;;;;;;;1.40;100.00;95368.31;5032782;28;20024;-54
2020/12/10 07:18:02;;;;;;;;;;;;;;;1.42;100.00;95361.25;5065719;28;19931;-52
2020/12/10 07:20:29;;;;;;;;;;;;;;;1.42;100.00;95363.84;5033238;28;20281;-53
2020/12/10 07:22:56;;;;;;;;;;;;;;;1.39;100.00;95363.25;5049047;28;19925;-48
2020/12/10 07:25:24;;;;;;;;;;;;;;;1.32;100.00;95369.84;5029105;28;19924;-53
2020/12/10 07:27:52;;;;;;;;;;;;;;;1.24;100.00;95364.38;5061055;27;19953;-50
2020/12/10 07:30:19;;;;;;;;;;;;;;;1.15;100.00;95363.31;5028168;28;19924;-48
2020/12/10 07:32:46;;;;;;;;;;;;;;;1.19;100.00;95354.34;5069196;28;19960;-51
2020/12/10 07:35:13;;;;;;;;;;;;;;;1.29;100.00;95355.31;5031151;28;19929;-48
2020/12/10 07:37:40;;;;;;;;;;;;;;;1.36;100.00;95351.31;5053551;28;20359;-48
2020/12/10 07:40:13;;;;;;;;;;;;;;;1.47;100.00;95352.28;5011359;27;19936;-52
2020/12/10 07:42:41;;;;;;;;;;;;;;;1.37;100.00;95352.13;5050980;28;19933;-49
2020/12/10 07:45:10;;;;;;;;;;;;;;;1.32;100.00;95342.09;5039665;27;19978;-58
2020/12/10 07:47:37;;;;;;;;;;;;;;;1.38;100.00;95351.22;5029777;28;19925;-54
2020/12/10 07:50:08;;;;;;;;;;;;;;;1.39;100.00;95347.66;5075073;28;20023;-51
2020/12/10 07:52:42;;;;;;;;;;;;;;;1.32;100.00;95343.88;5015534;27;20360;-51
2020/12/10 07:55:12;;;;;;;;;;;;;;;1.18;100.00;95342.31;5051875;28;19932;-49
2020/12/10 07:57:40;;;;;;;;;;;;;;;1.14;100.00;95349.50;5039992;27;20353;-49
2020/12/10 08:00:09;;;;;;;;;;;;;;;1.19;100.00;95341.38;5064528;28;19964;-51
2020/12/10 08:02:42;;;;;;;;;;;;;;;1.15;100.00;95342.56;5032736;28;19929;-54
2020/12/10 08:05:12;;;;;;;;;;;;;;;1.12;100.00;95343.59;5074559;28;19939;-53
2020/12/10 08:07:44;;;;;;;;;;;;;;;1.15;100.00;95334.75;5046691;27;19939;-52
2020/12/10 08:10:18;;;;;;;;;;;;;;;1.12;100.00;95330.63;5079407;28;19929;-52
2020/12/10 08:12:46;;;;;;;;;;;;;;;1.13;100.00;95332.25;5058553;27;19935;-51
2020/12/10 08:15:21;;;;;;;;;;;;;;;1.17;100.00;95331.13;5088477;28;19936;-52
2020/12/10 08:17:51;;;;;;;;;;;;;;;1.29;100.00;95333.72;5033055;28;19924;-52
2020/12/10 08:20:18;;;;;;;;;;;;;;;1.30;100.00;95336.19;5073460;28;19931;-50
2020/12/10 08:22:45;;;;;;;;;;;;;;;1.28;100.00;95337.28;5041954;28;19978;-52
2020/12/10 08:25:14;;;;;;;;;;;;;;;1.37;100.00;95336.56;5083479;28;19986;-52
2020/12/10 08:27:41;;;;;;;;;;;;;;;1.50;100.00;95329.50;5038469;28;19925;-50
2020/12/10 08:30:10;;;;;;;;;;;;;;;1.70;100.00;95321.94;5080396;28;19931;-50
2020/12/10 08:32:49;;;;;;;;;;;;;;;1.90;100.00;95326.44;5035076;28;19944;-48
2020/12/10 08:35:17;;;;;;;;;;;;;;;1.85;100.00;95323.34;5063831;28;20317;-52
2020/12/10 08:37:44;;;;;;;;;;;;;;;2.02;100.00;95319.44;5040363;28;19931;-51
2020/12/10 08:40:10;;;;;;;;;;;;;;;1.94;100.00;95322.63;5057670;28;19925;-51
2020/12/10 08:42:38;;;;;;;;;;;;;;;1.84;100.00;95321.69;5036938;28;19924;-50
2020/12/10 08:45:04;;;;;;;;;;;;;;;1.81;100.00;95314.97;5078562;28;20429;-49
2020/12/10 08:47:35;;;;;;;;;;;;;;;2.03;100.00;95321.94;5047713;28;20028;-58
2020/12/10 08:50:23;;;;;;;;;;;;;;;2.26;100.00;95329.66;5063533;28;19932;-50
2020/12/10 08:52:51;;;;;;;;;;;;;;;2.16;100.00;95326.16;5046595;28;20418;-48
2020/12/10 08:55:18;;;;;;;;;;;;;;;2.47;100.00;95327.94;5063714;28;19949;-54
2020/12/10 08:57:48;;;;;;;;;;;;;;;2.58;100.00;95325.34;5070173;28;20061;-50
2020/12/10 09:00:15;;;;;;;;;;;;;;;2.54;100.00;95326.50;5026468;28;19932;-52
2020/12/10 09:02:41;;;;;;;;;;;;;;;2.56;100.00;95334.22;5064261;28;19929;-48
2020/12/10 09:05:09;;;;;;;;;;;;;;;2.61;100.00;95326.84;5016541;28;20454;-49
2020/12/10 09:07:36;;;;;;;;;;;;;;;2.68;100.00;95329.78;5066754;28;20007;-51
2020/12/10 09:10:05;;;;;;;;;;;;;;;2.67;100.00;95328.13;5036918;28;19978;-53
2020/12/10 09:12:32;;;;;;;;;;;;;;;2.92;100.00;95327.78;5063984;28;19929;-49
2020/12/10 09:14:59;;;;;;;;;;;;;;;2.67;100.00;95325.53;5027090;28;19932;-52
2020/12/10 09:17:27;;;;;;;;;;;;;;;2.57;100.00;95326.25;5054925;28;19935;-48
2020/12/10 09:19:54;;;;;;;;;;;;;;;2.61;100.00;95325.09;5034000;28;19924;-49
2020/12/10 09:22:21;;;;;;;;;;;;;;;2.56;100.00;95327.22;5062260;28;19924;-48
2020/12/10 09:24:48;;;;;;;;;;;;;;;2.74;100.00;95324.09;5037652;28;20309;-49
2020/12/10 09:27:18;;;;;;;;;;;;;;;2.70;100.00;95320.09;5057340;28;19929;-50
2020/12/10 09:29:46;;;;;;;;;;;;;;;2.79;100.00;95317.56;5006884;28;19925;-51
2020/12/10 09:32:12;;;;;;;;;;;;;;;2.91;100.00;95314.91;5051182;28;19948;-52
2020/12/10 09:34:40;;;;;;;;;;;;;;;2.77;100.00;95314.25;5028543;28;19928;-53
2020/12/10 09:37:06;;;;;;;;;;;;;;;2.87;100.00;95311.72;5064976;28;19929;-53
2020/12/10 09:39:36;;;;;;;;;;;;;;;2.72;100.00;95315.56;5047451;28;19928;-53
2020/12/10 09:42:02;;;;;;;;;;;;;;;2.81;100.00;95312.22;5051486;28;20406;-49
2020/12/10 09:44:29;;;;;;;;;;;;;;;2.81;100.00;95318.25;5048015;28;19933;-50
2020/12/10 09:46:56;;;;;;;;;;;;;;;3.05;99.16;95312.78;5032455;28;19931;-48
2020/12/10 09:49:23;;;;;;;;;;;;;;;3.24;97.70;95313.91;5067436;28;19956;-53
2020/12/10 09:51:53;;;;;;;;;;;;;;;3.31;96.59;95307.22;5026953;28;19977;-50
2020/12/10 09:54:31;;;;;;;;;;;;;;;3.52;96.09;95308.00;5063999;28;19924;-49
2020/12/10 09:57:08;;;;;;;;;;;;;;;3.68;94.12;95302.31;5017026;28;19928;-55
2020/12/10 09:59:37;;;;;;;;;;;;;;;3.87;92.87;95298.94;5064781;28;19940;-48
2020/12/10 10:02:04;;;;;;;;;;;;;;;4.04;90.55;95294.88;5039561;28;20402;-48
2020/12/10 10:04:31;;;;;;;;;;;;;;;3.98;89.61;95287.59;5065808;28;20014;-48
2020/12/10 10:06:58;;;;;;;;;;;;;;;4.17;89.27;95287.66;5033649;28;20375;-51
2020/12/10 10:09:27;;;;;;;;;;;;;;;4.43;88.15;95293.16;5057863;28;19947;-50
2020/12/10 10:11:53;;;;;;;;;;;;;;;4.52;86.30;95281.91;5032212;28;19978;-49
2020/12/10 10:14:21;;;;;;;;;;;;;;;4.67;85.53;95281.50;5072233;28;19978;-53
2020/12/10 10:16:48;;;;;;;;;;;;;;;4.84;84.68;95287.81;5034736;28;19924;-48
2020/12/10 10:19:15;;;;;;;;;;;;;;;5.07;82.69;95281.34;5052283;28;19975;-54
2020/12/10 10:21:42;;;;;;;;;;;;;;;5.09;81.86;95283.81;5019756;28;20417;-56
2020/12/10 10:24:09;;;;;;;;;;;;;;;4.49;84.72;95274.34;5057901;28;20440;-48
2020/12/10 10:26:35;;;;;;;;;;;;;;;4.11;85.24;95276.91;5012685;28;19929;-49
2020/12/10 10:29:06;;;;;;;;;;;;;;;3.99;88.33;95271.81;5047286;28;19924;-48
2020/12/10 10:31:34;;;;;;;;;;;;;;;3.85;88.08;95264.34;5074368;28;19933;-48
2020/12/10 10:34:01;;;;;;;;;;;;;;;3.84;90.09;95259.28;5052432;27;19924;-49
2020/12/10 10:36:27;;;;;;;;;;;;;;;3.59;93.14;95258.78;5068707;28;19932;-54
2020/12/10 10:38:54;;;;;;;;;;;;;;;3.49;92.32;95263.97;5024764;28;19924;-51
2020/12/10 10:41:21;;;;;;;;;;;;;;;3.43;94.18;95258.44;5043980;28;20024;-50
2020/12/10 10:43:48;;;;;;;;;;;;;;;3.42;93.63;95265.44;5026386;28;19928;-51
2020/12/10 10:46:18;;;;;;;;;;;;;;;3.53;92.48;95254.91;5071856;28;20026;-51
2020/12/10 10:48:46;;;;;;;;;;;;;;;3.60;92.69;95259.63;5022047;28;19976;-52
2020/12/10 10:51:13;;;;;;;;;;;;;;;3.28;93.55;95252.75;5046775;28;19925;-49
2020/12/10 10:53:40;;;;;;;;;;;;;;;3.29;95.14;95254.41;5010630;28;19964;-48
2020/12/10 10:56:07;;;;;;;;;;;;;;;3.48;93.58;95248.47;5057459;28;19924;-50
2020/12/10 10:58:34;;;;;;;;;;;;;;;3.36;93.92;95246.88;5035307;28;19932;-52
2020/12/10 11:01:00;;;;;;;;;;;;;;;3.42;93.37;95252.41;5050460;28;19925;-52
2020/12/10 11:03:27;;;;;;;;;;;;;;;3.37;93.78;95245.94;5026960;28;19925;-50
2020/12/10 11:05:55;;;;;;;;;;;;;;;3.36;93.97;95242.50;5065037;28;19924;-48
2020/12/10 11:08:22;;;;;;;;;;;;;;;3.40;93.76;95241.28;5040814;28;21245;-50
2020/12/10 11:10:49;;;;;;;;;;;;;;;3.44;93.64;95240.09;5062748;28;20018;-51
2020/12/10 11:13:17;;;;;;;;;;;;;;;3.53;94.33;95241.88;5040766;28;19928;-55
2020/12/10 11:15:44;;;;;;;;;;;;;;;3.40;92.70;95241.28;5055210;28;20034;-49
2020/12/10 11:18:10;;;;;;;;;;;;;;;3.64;91.83;95230.53;5049619;28;19931;-51
2020/12/10 11:20:37;;;;;;;;;;;;;;;3.91;89.61;95232.53;5025987;28;19947;-50
2020/12/10 11:23:05;;;;;;;;;;;;;;;3.59;89.38;95235.34;5072661;28;19928;-48
2020/12/10 11:25:32;;;;;;;;;;;;;;;3.50;90.10;95231.72;5030454;28;20023;-50
2020/12/10 11:27:59;;;;;;;;;;;;;;;3.37;91.55;95230.28;5065686;28;20081;-52
2020/12/10 11:30:25;;;;;;;;;;;;;;;3.30;91.83;95223.03;5031682;28;19928;-52
2020/12/10 11:32:53;;;;;;;;;;;;;;;3.37;92.30;95225.91;5066793;28;19932;-53
2020/12/10 11:35:20;;;;;;;;;;;;;;;3.12;93.37;95218.53;5031050;28;19924;-50
2020/12/10 11:37:47;;;;;;;;;;;;;;;3.20;93.92;95216.94;5061207;28;19932;-48
2020/12/10 11:40:14;;;;;;;;;;;;;;;3.45;91.75;95204.44;5017619;28;19924;-48
2020/12/10 11:42:41;;;;;;;;;;;;;;;3.94;89.70;95216.63;5064159;28;19932;-50
2020/12/10 11:45:08;;;;;;;;;;;;;;;3.92;88.28;95212.47;5018106;28;19931;-52
2020/12/10 11:47:34;;;;;;;;;;;;;;;4.19;87.00;95217.06;5050021;28;20019;-53
2020/12/10 11:50:01;;;;;;;;;;;;;;;4.00;87.34;95212.66;5038500;28;19928;-48
2020/12/10 11:52:28;;;;;;;;;;;;;;;4.16;84.87;95209.50;5074642;28;19924;-51
2020/12/10 11:54:55;;;;;;;;;;;;;;;4.02;84.88;95205.50;5031738;28;19967;-49
2020/12/10 11:57:24;;;;;;;;;;;;;;;3.62;88.89;95197.75;5069975;28;20343;-55
2020/12/10 11:59:51;;;;;;;;;;;;;;;3.85;87.30;95200.94;5082361;28;19973;-50
2020/12/10 12:02:18;;;;;;;;;;;;;;;4.30;86.64;95201.25;5037354;28;20019;-54
2020/12/10 12:04:44;;;;;;;;;;;;;;;4.07;86.35;95202.50;5074592;28;20012;-49
2020/12/10 12:07:12;;;;;;;;;;;;;;;3.89;88.36;95197.09;5051796;28;19925;-50
2020/12/10 12:09:38;;;;;;;;;;;;;;;3.84;88.28;95200.13;5065456;28;19924;-53
2020/12/10 12:12:05;;;;;;;;;;;;;;;4.16;86.85;95196.47;5036866;28;19940;-51
2020/12/10 12:14:33;;;;;;;;;;;;;;;4.20;86.45;95201.28;5076718;28;20392;-48
2020/12/10 12:17:00;;;;;;;;;;;;;;;4.20;87.33;95196.06;5036829;28;20366;-52
2020/12/10 12:19:27;;;;;;;;;;;;;;;3.84;88.31;95196.69;5073826;28;20401;-52
2020/12/10 12:21:53;;;;;;;;;;;;;;;4.10;87.94;95197.84;5034705;28;19925;-49
2020/12/10 12:24:20;;;;;;;;;;;;;;;3.94;88.86;95194.94;5074674;28;19935;-50
2020/12/10 12:26:47;;;;;;;;;;;;;;;4.06;87.83;95196.47;5032382;28;19924;-50
2020/12/10 12:29:14;;;;;;;;;;;;;;;4.12;87.11;95195.91;5075715;28;20019;-52
2020/12/10 12:31:42;;;;;;;;;;;;;;;4.05;86.99;95189.59;5031100;28;19932;-49
2020/12/10 12:34:08;;;;;;;;;;;;;;;3.99;88.17;95184.91;5066559;28;19964;-51
2020/12/10 12:36:35;;;;;;;;;;;;;;;3.90;87.37;95183.13;5033032;28;19939;-47
2020/12/10 12:39:02;;;;;;;;;;;;;;;4.15;88.01;95187.81;5039571;28;19933;-48
2020/12/10 12:41:29;;;;;;;;;;;;;;;3.85;88.54;95196.56;5052636;28;19979;-46
2020/12/10 12:43:56;;;;;;;;;;;;;;;3.65;89.68;95190.50;5027686;28;19990;-48
2020/12/10 12:46:23;;;;;;;;;;;;;;;3.84;89.72;95194.09;5061420;28;20058;-50
2020/12/10 12:48:52;;;;;;;;;;;;;;;3.83;88.84;95197.66;5017818;28;19929;-46
2020/12/10 12:51:19;;;;;;;;;;;;;;;3.62;91.14;95193.38;5066755;28;20318;-47
2020/12/10 12:53:46;;;;;;;;;;;;;;;3.53;91.97;95197.59;5029391;28;20439;-47
2020/12/10 12:56:13;;;;;;;;;;;;;;;3.47;93.09;95199.88;5073886;28;19924;-49